sensor_id;sensor_type;location;lat;lon;timestamp;P1;durP1;ratioP1;P2;durP2;ratioP2
67037;SDS011;53940;53.204;6.590;2024-01-27T00:02:57;1.88;;;0.60;;
67037;SDS011;53940;53.204;6.590;2024-01-27T00:05:58;1.58;;;0.60;;
67037;SDS011;53940;53.204;6.590;2024-01-27T00:08:58;1.67;;;0.50;;
67037;SDS011;53940;53.204;6.590;2024-01-27T00:11:58;1.50;;;0.52;;
67037;SDS011;53940;53.204;6.590;2024-01-27T00:14:59;1.90;;;0.63;;
67037;SDS011;53940;53.204;6.590;2024-01-27T00:17:59;1.10;;;0.60;;
67037;SDS011;53940;53.204;6.590;2024-01-27T00:20:59;1.67;;;0.52;;
67037;SDS011;53940;53.204;6.590;2024-01-27T00:24:00;2.28;;;0.70;;
67037;SDS011;53940;53.204;6.590;2024-01-27T00:27:03;2.63;;;0.60;;
67037;SDS011;53940;53.204;6.590;2024-01-27T00:30:04;1.40;;;0.57;;
67037;SDS011;53940;53.204;6.590;2024-01-27T00:33:05;2.28;;;0.95;;
67037;SDS011;53940;53.204;6.590;2024-01-27T00:36:05;1.75;;;0.60;;
67037;SDS011;53940;53.204;6.590;2024-01-27T00:39:05;1.30;;;0.63;;
67037;SDS011;53940;53.204;6.590;2024-01-27T00:42:06;1.38;;;0.57;;
67037;SDS011;53940;53.204;6.590;2024-01-27T00:45:06;1.75;;;0.75;;
67037;SDS011;53940;53.204;6.590;2024-01-27T00:48:07;1.30;;;0.57;;
67037;SDS011;53940;53.204;6.590;2024-01-27T00:51:07;2.22;;;0.77;;
67037;SDS011;53940;53.204;6.590;2024-01-27T00:54:08;1.95;;;0.82;;
67037;SDS011;53940;53.204;6.590;2024-01-27T00:57:08;1.67;;;0.70;;
67037;SDS011;53940;53.204;6.590;2024-01-27T01:00:09;1.40;;;0.70;;
67037;SDS011;53940;53.204;6.590;2024-01-27T01:03:10;2.13;;;1.00;;
67037;SDS011;53940;53.204;6.590;2024-01-27T01:06:10;1.63;;;0.70;;
67037;SDS011;53940;53.204;6.590;2024-01-27T01:09:11;1.20;;;0.50;;
67037;SDS011;53940;53.204;6.590;2024-01-27T01:12:11;2.55;;;0.93;;
67037;SDS011;53940;53.204;6.590;2024-01-27T01:15:11;2.35;;;0.70;;
67037;SDS011;53940;53.204;6.590;2024-01-27T01:18:13;1.70;;;0.70;;
67037;SDS011;53940;53.204;6.590;2024-01-27T01:21:13;2.42;;;0.70;;
67037;SDS011;53940;53.204;6.590;2024-01-27T01:24:14;2.85;;;0.98;;
67037;SDS011;53940;53.204;6.590;2024-01-27T01:27:14;2.50;;;1.05;;
67037;SDS011;53940;53.204;6.590;2024-01-27T01:30:18;3.35;;;0.73;;
67037;SDS011;53940;53.204;6.590;2024-01-27T01:33:19;1.45;;;0.60;;
67037;SDS011;53940;53.204;6.590;2024-01-27T01:36:19;2.13;;;0.65;;
67037;SDS011;53940;53.204;6.590;2024-01-27T01:39:20;1.13;;;0.55;;
67037;SDS011;53940;53.204;6.590;2024-01-27T01:42:20;1.70;;;0.70;;
67037;SDS011;53940;53.204;6.590;2024-01-27T01:45:24;2.42;;;0.98;;
67037;SDS011;53940;53.204;6.590;2024-01-27T01:48:24;1.88;;;0.70;;
67037;SDS011;53940;53.204;6.590;2024-01-27T01:51:28;1.45;;;0.60;;
67037;SDS011;53940;53.204;6.590;2024-01-27T01:54:29;1.40;;;0.50;;
67037;SDS011;53940;53.204;6.590;2024-01-27T01:57:31;2.00;;;0.70;;
67037;SDS011;53940;53.204;6.590;2024-01-27T02:00:33;1.90;;;0.70;;
67037;SDS011;53940;53.204;6.590;2024-01-27T02:03:33;1.85;;;0.77;;
67037;SDS011;53940;53.204;6.590;2024-01-27T02:06:33;2.78;;;0.80;;
67037;SDS011;53940;53.204;6.590;2024-01-27T02:09:34;1.90;;;0.60;;
67037;SDS011;53940;53.204;6.590;2024-01-27T02:12:34;2.60;;;0.82;;
67037;SDS011;53940;53.204;6.590;2024-01-27T02:15:35;2.13;;;0.80;;
67037;SDS011;53940;53.204;6.590;2024-01-27T02:18:35;2.13;;;0.75;;
67037;SDS011;53940;53.204;6.590;2024-01-27T02:21:35;1.80;;;0.70;;
67037;SDS011;53940;53.204;6.590;2024-01-27T02:24:36;2.60;;;0.80;;
67037;SDS011;53940;53.204;6.590;2024-01-27T02:27:36;2.55;;;0.90;;
67037;SDS011;53940;53.204;6.590;2024-01-27T02:30:36;2.35;;;0.93;;
67037;SDS011;53940;53.204;6.590;2024-01-27T02:33:37;2.67;;;0.80;;
67037;SDS011;53940;53.204;6.590;2024-01-27T02:36:37;2.47;;;0.80;;
67037;SDS011;53940;53.204;6.590;2024-01-27T02:39:37;1.15;;;0.50;;
67037;SDS011;53940;53.204;6.590;2024-01-27T02:42:40;1.40;;;0.70;;
67037;SDS011;53940;53.204;6.590;2024-01-27T02:45:42;2.85;;;0.82;;
67037;SDS011;53940;53.204;6.590;2024-01-27T02:48:42;2.58;;;0.80;;
67037;SDS011;53940;53.204;6.590;2024-01-27T02:51:43;2.30;;;0.82;;
67037;SDS011;53940;53.204;6.590;2024-01-27T02:54:44;2.03;;;0.80;;
67037;SDS011;53940;53.204;6.590;2024-01-27T02:57:44;1.77;;;0.70;;
67037;SDS011;53940;53.204;6.590;2024-01-27T03:00:44;2.45;;;0.90;;
67037;SDS011;53940;53.204;6.590;2024-01-27T03:03:45;1.83;;;0.63;;
67037;SDS011;53940;53.204;6.590;2024-01-27T03:06:45;2.42;;;0.70;;
67037;SDS011;53940;53.204;6.590;2024-01-27T03:09:46;1.77;;;0.60;;
67037;SDS011;53940;53.204;6.590;2024-01-27T03:12:46;3.00;;;0.70;;
67037;SDS011;53940;53.204;6.590;2024-01-27T03:15:46;2.75;;;0.70;;
67037;SDS011;53940;53.204;6.590;2024-01-27T03:18:47;2.30;;;0.82;;
67037;SDS011;53940;53.204;6.590;2024-01-27T03:21:47;1.52;;;0.70;;
67037;SDS011;53940;53.204;6.590;2024-01-27T03:24:47;2.13;;;0.50;;
67037;SDS011;53940;53.204;6.590;2024-01-27T03:27:48;1.40;;;0.55;;
67037;SDS011;53940;53.204;6.590;2024-01-27T03:30:48;1.98;;;0.80;;
67037;SDS011;53940;53.204;6.590;2024-01-27T03:33:49;1.92;;;0.60;;
67037;SDS011;53940;53.204;6.590;2024-01-27T03:36:49;1.67;;;0.60;;
67037;SDS011;53940;53.204;6.590;2024-01-27T03:39:50;2.13;;;0.80;;
67037;SDS011;53940;53.204;6.590;2024-01-27T03:42:50;1.67;;;0.60;;
67037;SDS011;53940;53.204;6.590;2024-01-27T03:45:50;1.67;;;0.50;;
67037;SDS011;53940;53.204;6.590;2024-01-27T03:48:51;1.95;;;0.70;;
67037;SDS011;53940;53.204;6.590;2024-01-27T03:51:51;1.17;;;0.50;;
67037;SDS011;53940;53.204;6.590;2024-01-27T03:54:51;1.85;;;0.70;;
67037;SDS011;53940;53.204;6.590;2024-01-27T03:57:52;1.73;;;0.60;;
67037;SDS011;53940;53.204;6.590;2024-01-27T04:00:52;1.08;;;0.60;;
67037;SDS011;53940;53.204;6.590;2024-01-27T04:03:52;2.25;;;0.75;;
67037;SDS011;53940;53.204;6.590;2024-01-27T04:06:53;1.63;;;0.70;;
67037;SDS011;53940;53.204;6.590;2024-01-27T04:09:53;1.98;;;0.73;;
67037;SDS011;53940;53.204;6.590;2024-01-27T04:12:53;0.88;;;0.40;;
67037;SDS011;53940;53.204;6.590;2024-01-27T04:15:54;1.23;;;0.55;;
67037;SDS011;53940;53.204;6.590;2024-01-27T04:18:54;1.88;;;0.70;;
67037;SDS011;53940;53.204;6.590;2024-01-27T04:21:54;1.73;;;0.70;;
67037;SDS011;53940;53.204;6.590;2024-01-27T04:24:55;2.20;;;0.60;;
67037;SDS011;53940;53.204;6.590;2024-01-27T04:27:55;1.65;;;0.63;;
67037;SDS011;53940;53.204;6.590;2024-01-27T04:30:55;1.75;;;0.60;;
67037;SDS011;53940;53.204;6.590;2024-01-27T04:33:55;1.08;;;0.50;;
67037;SDS011;53940;53.204;6.590;2024-01-27T04:36:57;2.08;;;0.63;;
67037;SDS011;53940;53.204;6.590;2024-01-27T04:39:57;1.67;;;0.40;;
67037;SDS011;53940;53.204;6.590;2024-01-27T04:42:57;1.42;;;0.60;;
67037;SDS011;53940;53.204;6.590;2024-01-27T04:45:58;2.13;;;0.70;;
67037;SDS011;53940;53.204;6.590;2024-01-27T04:48:59;1.38;;;0.40;;
67037;SDS011;53940;53.204;6.590;2024-01-27T04:51:59;1.58;;;0.57;;
67037;SDS011;53940;53.204;6.590;2024-01-27T04:54:59;1.95;;;0.70;;
67037;SDS011;53940;53.204;6.590;2024-01-27T04:58:00;1.55;;;0.70;;
67037;SDS011;53940;53.204;6.590;2024-01-27T05:01:01;1.95;;;0.60;;
67037;SDS011;53940;53.204;6.590;2024-01-27T05:04:01;1.50;;;0.50;;
67037;SDS011;53940;53.204;6.590;2024-01-27T05:07:02;0.80;;;0.43;;
67037;SDS011;53940;53.204;6.590;2024-01-27T05:10:02;1.17;;;0.57;;
67037;SDS011;53940;53.204;6.590;2024-01-27T05:13:03;1.00;;;0.52;;
67037;SDS011;53940;53.204;6.590;2024-01-27T05:16:03;1.60;;;0.40;;
67037;SDS011;53940;53.204;6.590;2024-01-27T05:19:04;1.20;;;0.52;;
67037;SDS011;53940;53.204;6.590;2024-01-27T05:22:04;2.45;;;0.70;;
67037;SDS011;53940;53.204;6.590;2024-01-27T05:25:05;1.38;;;0.50;;
67037;SDS011;53940;53.204;6.590;2024-01-27T05:28:05;1.67;;;0.70;;
67037;SDS011;53940;53.204;6.590;2024-01-27T05:31:09;1.67;;;0.63;;
67037;SDS011;53940;53.204;6.590;2024-01-27T05:34:12;1.40;;;0.50;;
67037;SDS011;53940;53.204;6.590;2024-01-27T05:37:13;2.22;;;0.50;;
67037;SDS011;53940;53.204;6.590;2024-01-27T05:40:13;1.27;;;0.40;;
67037;SDS011;53940;53.204;6.590;2024-01-27T05:43:15;1.02;;;0.43;;
67037;SDS011;53940;53.204;6.590;2024-01-27T05:46:15;1.58;;;0.50;;
67037;SDS011;53940;53.204;6.590;2024-01-27T05:49:15;1.70;;;0.50;;
67037;SDS011;53940;53.204;6.590;2024-01-27T05:52:15;0.95;;;0.40;;
67037;SDS011;53940;53.204;6.590;2024-01-27T05:55:16;1.65;;;0.50;;
67037;SDS011;53940;53.204;6.590;2024-01-27T05:58:17;2.40;;;0.70;;
67037;SDS011;53940;53.204;6.590;2024-01-27T06:01:17;1.70;;;0.63;;
67037;SDS011;53940;53.204;6.590;2024-01-27T06:04:19;1.65;;;0.73;;
67037;SDS011;53940;53.204;6.590;2024-01-27T06:07:19;1.40;;;0.45;;
67037;SDS011;53940;53.204;6.590;2024-01-27T06:10:19;1.38;;;0.60;;
67037;SDS011;53940;53.204;6.590;2024-01-27T06:13:20;2.17;;;0.68;;
67037;SDS011;53940;53.204;6.590;2024-01-27T06:16:20;1.08;;;0.50;;
67037;SDS011;53940;53.204;6.590;2024-01-27T06:19:21;1.20;;;0.50;;
67037;SDS011;53940;53.204;6.590;2024-01-27T06:22:21;1.75;;;0.45;;
67037;SDS011;53940;53.204;6.590;2024-01-27T06:25:21;1.55;;;0.70;;
67037;SDS011;53940;53.204;6.590;2024-01-27T06:28:21;1.45;;;0.50;;
67037;SDS011;53940;53.204;6.590;2024-01-27T06:31:22;1.05;;;0.50;;
67037;SDS011;53940;53.204;6.590;2024-01-27T06:34:22;1.20;;;0.60;;
67037;SDS011;53940;53.204;6.590;2024-01-27T06:37:23;2.05;;;0.52;;
67037;SDS011;53940;53.204;6.590;2024-01-27T06:40:23;2.05;;;0.60;;
67037;SDS011;53940;53.204;6.590;2024-01-27T06:43:23;1.27;;;0.50;;
67037;SDS011;53940;53.204;6.590;2024-01-27T06:46:24;1.75;;;0.50;;
67037;SDS011;53940;53.204;6.590;2024-01-27T06:49:24;1.55;;;0.70;;
67037;SDS011;53940;53.204;6.590;2024-01-27T06:52:25;1.08;;;0.55;;
67037;SDS011;53940;53.204;6.590;2024-01-27T06:55:25;1.45;;;0.55;;
67037;SDS011;53940;53.204;6.590;2024-01-27T06:58:26;1.10;;;0.50;;
67037;SDS011;53940;53.204;6.590;2024-01-27T07:01:26;1.30;;;0.50;;
67037;SDS011;53940;53.204;6.590;2024-01-27T07:04:27;3.90;;;0.50;;
67037;SDS011;53940;53.204;6.590;2024-01-27T07:07:28;1.80;;;0.60;;
67037;SDS011;53940;53.204;6.590;2024-01-27T07:10:28;1.45;;;0.50;;
67037;SDS011;53940;53.204;6.590;2024-01-27T07:13:29;1.17;;;0.50;;
67037;SDS011;53940;53.204;6.590;2024-01-27T07:16:30;1.88;;;0.60;;
67037;SDS011;53940;53.204;6.590;2024-01-27T07:19:32;1.15;;;0.50;;
67037;SDS011;53940;53.204;6.590;2024-01-27T07:22:32;1.67;;;0.60;;
67037;SDS011;53940;53.204;6.590;2024-01-27T07:25:33;1.95;;;0.60;;
67037;SDS011;53940;53.204;6.590;2024-01-27T07:28:33;1.10;;;0.50;;
67037;SDS011;53940;53.204;6.590;2024-01-27T07:31:34;1.23;;;0.40;;
67037;SDS011;53940;53.204;6.590;2024-01-27T07:34:34;1.65;;;0.60;;
67037;SDS011;53940;53.204;6.590;2024-01-27T07:37:35;1.33;;;0.40;;
67037;SDS011;53940;53.204;6.590;2024-01-27T07:40:35;1.50;;;0.50;;
67037;SDS011;53940;53.204;6.590;2024-01-27T07:43:35;0.85;;;0.40;;
67037;SDS011;53940;53.204;6.590;2024-01-27T07:46:37;1.88;;;0.52;;
67037;SDS011;53940;53.204;6.590;2024-01-27T07:49:38;2.38;;;0.77;;
67037;SDS011;53940;53.204;6.590;2024-01-27T07:52:38;3.35;;;0.73;;
67037;SDS011;53940;53.204;6.590;2024-01-27T07:55:39;2.08;;;0.60;;
67037;SDS011;53940;53.204;6.590;2024-01-27T07:58:39;1.83;;;0.70;;
67037;SDS011;53940;53.204;6.590;2024-01-27T08:01:40;1.13;;;0.50;;
67037;SDS011;53940;53.204;6.590;2024-01-27T08:04:40;1.75;;;0.60;;
67037;SDS011;53940;53.204;6.590;2024-01-27T08:07:41;2.03;;;0.60;;
67037;SDS011;53940;53.204;6.590;2024-01-27T08:10:41;2.17;;;0.50;;
67037;SDS011;53940;53.204;6.590;2024-01-27T08:13:41;1.10;;;0.47;;
67037;SDS011;53940;53.204;6.590;2024-01-27T08:16:42;0.77;;;0.40;;
67037;SDS011;53940;53.204;6.590;2024-01-27T08:19:43;0.57;;;0.40;;
67037;SDS011;53940;53.204;6.590;2024-01-27T08:22:43;1.30;;;0.50;;
67037;SDS011;53940;53.204;6.590;2024-01-27T08:25:43;2.72;;;0.60;;
67037;SDS011;53940;53.204;6.590;2024-01-27T08:28:47;0.80;;;0.40;;
67037;SDS011;53940;53.204;6.590;2024-01-27T08:31:47;2.05;;;0.60;;
67037;SDS011;53940;53.204;6.590;2024-01-27T08:34:47;2.00;;;0.70;;
67037;SDS011;53940;53.204;6.590;2024-01-27T08:37:48;2.10;;;0.68;;
67037;SDS011;53940;53.204;6.590;2024-01-27T08:40:48;0.80;;;0.43;;
67037;SDS011;53940;53.204;6.590;2024-01-27T08:43:48;1.17;;;0.50;;
67037;SDS011;53940;53.204;6.590;2024-01-27T08:46:49;2.08;;;0.50;;
67037;SDS011;53940;53.204;6.590;2024-01-27T08:49:49;1.67;;;0.40;;
67037;SDS011;53940;53.204;6.590;2024-01-27T08:52:49;1.42;;;0.63;;
67037;SDS011;53940;53.204;6.590;2024-01-27T08:55:50;2.45;;;0.60;;
67037;SDS011;53940;53.204;6.590;2024-01-27T08:58:50;1.48;;;0.57;;
67037;SDS011;53940;53.204;6.590;2024-01-27T09:01:52;1.10;;;0.43;;
67037;SDS011;53940;53.204;6.590;2024-01-27T09:04:52;1.40;;;0.50;;
67037;SDS011;53940;53.204;6.590;2024-01-27T09:07:52;1.02;;;0.43;;
67037;SDS011;53940;53.204;6.590;2024-01-27T09:10:53;1.80;;;0.50;;
67037;SDS011;53940;53.204;6.590;2024-01-27T09:13:53;1.85;;;0.55;;
67037;SDS011;53940;53.204;6.590;2024-01-27T09:16:53;2.28;;;0.50;;
67037;SDS011;53940;53.204;6.590;2024-01-27T09:19:53;1.17;;;0.47;;
67037;SDS011;53940;53.204;6.590;2024-01-27T09:22:54;2.07;;;0.40;;
67037;SDS011;53940;53.204;6.590;2024-01-27T09:25:54;2.13;;;0.70;;
67037;SDS011;53940;53.204;6.590;2024-01-27T09:28:54;2.33;;;0.60;;
67037;SDS011;53940;53.204;6.590;2024-01-27T09:31:55;1.25;;;0.35;;
67037;SDS011;53940;53.204;6.590;2024-01-27T09:34:55;1.52;;;0.50;;
67037;SDS011;53940;53.204;6.590;2024-01-27T09:37:56;1.23;;;0.60;;
67037;SDS011;53940;53.204;6.590;2024-01-27T09:40:56;3.05;;;0.43;;
67037;SDS011;53940;53.204;6.590;2024-01-27T09:43:57;1.55;;;0.65;;
67037;SDS011;53940;53.204;6.590;2024-01-27T09:47:00;1.25;;;0.40;;
67037;SDS011;53940;53.204;6.590;2024-01-27T09:50:02;1.63;;;0.50;;
67037;SDS011;53940;53.204;6.590;2024-01-27T09:53:03;1.55;;;0.50;;
67037;SDS011;53940;53.204;6.590;2024-01-27T09:56:08;1.17;;;0.50;;
67037;SDS011;53940;53.204;6.590;2024-01-27T09:59:09;1.60;;;0.50;;
67037;SDS011;53940;53.204;6.590;2024-01-27T10:02:10;0.93;;;0.30;;
67037;SDS011;53940;53.204;6.590;2024-01-27T10:05:11;1.20;;;0.40;;
67037;SDS011;53940;53.204;6.590;2024-01-27T10:08:13;2.35;;;0.57;;
67037;SDS011;53940;53.204;6.590;2024-01-27T10:11:13;1.23;;;0.40;;
67037;SDS011;53940;53.204;6.590;2024-01-27T10:14:14;1.58;;;0.40;;
67037;SDS011;53940;53.204;6.590;2024-01-27T10:17:21;1.88;;;0.55;;
67037;SDS011;53940;53.204;6.590;2024-01-27T10:20:23;1.17;;;0.50;;
67037;SDS011;53940;53.204;6.590;2024-01-27T10:23:28;0.80;;;0.50;;
67037;SDS011;53940;53.204;6.590;2024-01-27T10:26:32;1.17;;;0.50;;
67037;SDS011;53940;53.204;6.590;2024-01-27T10:29:33;0.68;;;0.40;;
67037;SDS011;53940;53.204;6.590;2024-01-27T10:32:33;0.98;;;0.35;;
67037;SDS011;53940;53.204;6.590;2024-01-27T10:35:34;1.40;;;0.55;;
67037;SDS011;53940;53.204;6.590;2024-01-27T10:38:37;0.52;;;0.30;;
67037;SDS011;53940;53.204;6.590;2024-01-27T10:41:38;1.25;;;0.50;;
67037;SDS011;53940;53.204;6.590;2024-01-27T10:44:40;2.35;;;0.40;;
67037;SDS011;53940;53.204;6.590;2024-01-27T10:47:42;1.35;;;0.38;;
67037;SDS011;53940;53.204;6.590;2024-01-27T10:50:45;1.25;;;0.47;;
67037;SDS011;53940;53.204;6.590;2024-01-27T10:53:47;1.92;;;0.50;;
67037;SDS011;53940;53.204;6.590;2024-01-27T10:56:49;1.00;;;0.30;;
67037;SDS011;53940;53.204;6.590;2024-01-27T10:59:53;1.02;;;0.40;;
67037;SDS011;53940;53.204;6.590;2024-01-27T11:02:57;1.35;;;0.45;;
67037;SDS011;53940;53.204;6.590;2024-01-27T11:05:58;1.15;;;0.50;;
67037;SDS011;53940;53.204;6.590;2024-01-27T11:09:00;1.60;;;0.57;;
67037;SDS011;53940;53.204;6.590;2024-01-27T11:12:03;1.40;;;0.50;;
67037;SDS011;53940;53.204;6.590;2024-01-27T11:15:06;1.08;;;0.50;;
67037;SDS011;53940;53.204;6.590;2024-01-27T11:18:07;1.20;;;0.60;;
67037;SDS011;53940;53.204;6.590;2024-01-27T11:21:07;1.00;;;0.40;;
67037;SDS011;53940;53.204;6.590;2024-01-27T11:24:14;1.00;;;0.30;;
67037;SDS011;53940;53.204;6.590;2024-01-27T11:27:14;1.15;;;0.43;;
67037;SDS011;53940;53.204;6.590;2024-01-27T11:33:25;2.45;;;0.60;;
67037;SDS011;53940;53.204;6.590;2024-01-27T11:36:26;1.58;;;0.52;;
67037;SDS011;53940;53.204;6.590;2024-01-27T11:39:27;1.05;;;0.40;;
67037;SDS011;53940;53.204;6.590;2024-01-27T11:42:29;1.70;;;0.60;;
67037;SDS011;53940;53.204;6.590;2024-01-27T11:45:29;0.82;;;0.40;;
67037;SDS011;53940;53.204;6.590;2024-01-27T11:48:30;1.05;;;0.40;;
67037;SDS011;53940;53.204;6.590;2024-01-27T11:51:31;1.98;;;0.47;;
67037;SDS011;53940;53.204;6.590;2024-01-27T11:54:31;0.88;;;0.32;;
67037;SDS011;53940;53.204;6.590;2024-01-27T11:57:31;1.08;;;0.50;;
67037;SDS011;53940;53.204;6.590;2024-01-27T12:00:32;1.38;;;0.40;;
67037;SDS011;53940;53.204;6.590;2024-01-27T12:03:32;1.25;;;0.55;;
67037;SDS011;53940;53.204;6.590;2024-01-27T12:06:33;1.10;;;0.52;;
67037;SDS011;53940;53.204;6.590;2024-01-27T12:09:33;0.88;;;0.40;;
67037;SDS011;53940;53.204;6.590;2024-01-27T12:12:35;1.10;;;0.40;;
67037;SDS011;53940;53.204;6.590;2024-01-27T12:15:36;0.38;;;0.20;;
67037;SDS011;53940;53.204;6.590;2024-01-27T12:18:36;1.42;;;0.38;;
67037;SDS011;53940;53.204;6.590;2024-01-27T12:21:36;1.17;;;0.47;;
67037;SDS011;53940;53.204;6.590;2024-01-27T12:24:37;0.88;;;0.40;;
67037;SDS011;53940;53.204;6.590;2024-01-27T12:27:38;0.68;;;0.55;;
67037;SDS011;53940;53.204;6.590;2024-01-27T12:30:39;0.88;;;0.38;;
67037;SDS011;53940;53.204;6.590;2024-01-27T12:33:39;1.02;;;0.45;;
67037;SDS011;53940;53.204;6.590;2024-01-27T12:36:42;0.82;;;0.40;;
67037;SDS011;53940;53.204;6.590;2024-01-27T12:39:43;0.88;;;0.40;;
67037;SDS011;53940;53.204;6.590;2024-01-27T12:42:44;0.68;;;0.40;;
67037;SDS011;53940;53.204;6.590;2024-01-27T12:45:44;1.10;;;0.47;;
67037;SDS011;53940;53.204;6.590;2024-01-27T12:48:45;2.90;;;0.77;;
67037;SDS011;53940;53.204;6.590;2024-01-27T12:51:46;4.13;;;1.20;;
67037;SDS011;53940;53.204;6.590;2024-01-27T12:54:47;3.53;;;1.25;;
67037;SDS011;53940;53.204;6.590;2024-01-27T12:57:47;3.22;;;1.50;;
67037;SDS011;53940;53.204;6.590;2024-01-27T13:00:48;3.40;;;1.42;;
67037;SDS011;53940;53.204;6.590;2024-01-27T13:03:49;2.85;;;1.10;;
67037;SDS011;53940;53.204;6.590;2024-01-27T13:06:50;3.80;;;1.70;;
67037;SDS011;53940;53.204;6.590;2024-01-27T13:09:51;4.53;;;1.85;;
67037;SDS011;53940;53.204;6.590;2024-01-27T13:12:51;5.75;;;1.73;;
67037;SDS011;53940;53.204;6.590;2024-01-27T13:15:51;3.90;;;1.33;;
67037;SDS011;53940;53.204;6.590;2024-01-27T13:18:52;3.25;;;1.48;;
67037;SDS011;53940;53.204;6.590;2024-01-27T13:21:52;3.70;;;1.40;;
67037;SDS011;53940;53.204;6.590;2024-01-27T13:24:53;3.30;;;1.33;;
67037;SDS011;53940;53.204;6.590;2024-01-27T13:27:54;3.50;;;1.30;;
67037;SDS011;53940;53.204;6.590;2024-01-27T13:30:55;4.93;;;1.23;;
67037;SDS011;53940;53.204;6.590;2024-01-27T13:33:56;5.82;;;1.20;;
67037;SDS011;53940;53.204;6.590;2024-01-27T13:36:57;2.75;;;1.50;;
67037;SDS011;53940;53.204;6.590;2024-01-27T13:40:03;5.43;;;1.30;;
67037;SDS011;53940;53.204;6.590;2024-01-27T13:43:04;4.90;;;1.40;;
67037;SDS011;53940;53.204;6.590;2024-01-27T13:46:05;3.67;;;1.25;;
67037;SDS011;53940;53.204;6.590;2024-01-27T13:49:05;3.65;;;1.50;;
67037;SDS011;53940;53.204;6.590;2024-01-27T13:52:06;2.90;;;1.20;;
67037;SDS011;53940;53.204;6.590;2024-01-27T13:55:06;3.08;;;1.30;;
67037;SDS011;53940;53.204;6.590;2024-01-27T13:58:07;2.78;;;1.05;;
67037;SDS011;53940;53.204;6.590;2024-01-27T14:01:07;3.42;;;1.25;;
67037;SDS011;53940;53.204;6.590;2024-01-27T14:04:08;3.50;;;1.17;;
67037;SDS011;53940;53.204;6.590;2024-01-27T14:07:08;3.42;;;1.02;;
67037;SDS011;53940;53.204;6.590;2024-01-27T14:10:09;3.22;;;1.15;;
67037;SDS011;53940;53.204;6.590;2024-01-27T14:13:10;3.53;;;1.17;;
67037;SDS011;53940;53.204;6.590;2024-01-27T14:16:10;2.50;;;0.90;;
67037;SDS011;53940;53.204;6.590;2024-01-27T14:19:10;3.00;;;1.10;;
67037;SDS011;53940;53.204;6.590;2024-01-27T14:22:11;4.93;;;1.40;;
67037;SDS011;53940;53.204;6.590;2024-01-27T14:25:11;3.55;;;1.25;;
67037;SDS011;53940;53.204;6.590;2024-01-27T14:28:11;2.30;;;1.20;;
67037;SDS011;53940;53.204;6.590;2024-01-27T14:31:13;2.22;;;0.90;;
67037;SDS011;53940;53.204;6.590;2024-01-27T14:34:13;2.10;;;1.02;;
67037;SDS011;53940;53.204;6.590;2024-01-27T14:37:14;2.08;;;0.80;;
67037;SDS011;53940;53.204;6.590;2024-01-27T14:40:18;1.95;;;0.88;;
67037;SDS011;53940;53.204;6.590;2024-01-27T14:43:20;2.15;;;0.95;;
67037;SDS011;53940;53.204;6.590;2024-01-27T14:46:22;1.65;;;0.77;;
67037;SDS011;53940;53.204;6.590;2024-01-27T14:49:23;2.90;;;1.00;;
67037;SDS011;53940;53.204;6.590;2024-01-27T14:52:23;1.95;;;0.80;;
67037;SDS011;53940;53.204;6.590;2024-01-27T14:55:24;2.58;;;0.80;;
67037;SDS011;53940;53.204;6.590;2024-01-27T14:58:26;3.00;;;0.90;;
67037;SDS011;53940;53.204;6.590;2024-01-27T15:01:26;2.60;;;1.00;;
67037;SDS011;53940;53.204;6.590;2024-01-27T15:04:27;3.67;;;1.02;;
67037;SDS011;53940;53.204;6.590;2024-01-27T15:07:28;1.58;;;0.73;;
67037;SDS011;53940;53.204;6.590;2024-01-27T15:10:29;2.08;;;0.90;;
67037;SDS011;53940;53.204;6.590;2024-01-27T15:13:31;2.30;;;0.88;;
67037;SDS011;53940;53.204;6.590;2024-01-27T15:16:31;2.67;;;0.70;;
67037;SDS011;53940;53.204;6.590;2024-01-27T15:19:34;2.97;;;1.10;;
67037;SDS011;53940;53.204;6.590;2024-01-27T15:22:34;2.10;;;0.85;;
67037;SDS011;53940;53.204;6.590;2024-01-27T15:25:35;2.63;;;0.90;;
67037;SDS011;53940;53.204;6.590;2024-01-27T15:28:35;2.58;;;0.80;;
67037;SDS011;53940;53.204;6.590;2024-01-27T15:31:35;2.58;;;0.80;;
67037;SDS011;53940;53.204;6.590;2024-01-27T15:34:36;1.65;;;0.80;;
67037;SDS011;53940;53.204;6.590;2024-01-27T15:37:36;2.13;;;0.63;;
67037;SDS011;53940;53.204;6.590;2024-01-27T15:40:38;2.70;;;0.70;;
67037;SDS011;53940;53.204;6.590;2024-01-27T15:43:38;2.35;;;0.68;;
67037;SDS011;53940;53.204;6.590;2024-01-27T15:46:40;2.85;;;0.77;;
67037;SDS011;53940;53.204;6.590;2024-01-27T15:49:41;1.85;;;0.70;;
67037;SDS011;53940;53.204;6.590;2024-01-27T15:52:41;2.10;;;0.70;;
67037;SDS011;53940;53.204;6.590;2024-01-27T15:55:43;1.95;;;0.70;;
67037;SDS011;53940;53.204;6.590;2024-01-27T15:58:43;1.52;;;0.60;;
67037;SDS011;53940;53.204;6.590;2024-01-27T16:01:43;2.17;;;0.90;;
67037;SDS011;53940;53.204;6.590;2024-01-27T16:04:44;2.33;;;0.90;;
67037;SDS011;53940;53.204;6.590;2024-01-27T16:07:45;1.50;;;0.80;;
67037;SDS011;53940;53.204;6.590;2024-01-27T16:10:45;1.60;;;0.70;;
67037;SDS011;53940;53.204;6.590;2024-01-27T16:13:46;2.00;;;1.02;;
67037;SDS011;53940;53.204;6.590;2024-01-27T16:16:46;2.55;;;0.95;;
67037;SDS011;53940;53.204;6.590;2024-01-27T16:19:46;2.10;;;0.75;;
67037;SDS011;53940;53.204;6.590;2024-01-27T16:22:47;2.30;;;0.80;;
67037;SDS011;53940;53.204;6.590;2024-01-27T16:25:47;3.10;;;0.80;;
67037;SDS011;53940;53.204;6.590;2024-01-27T16:28:47;1.25;;;0.65;;
67037;SDS011;53940;53.204;6.590;2024-01-27T16:31:48;2.83;;;0.95;;
67037;SDS011;53940;53.204;6.590;2024-01-27T16:34:48;1.83;;;0.88;;
67037;SDS011;53940;53.204;6.590;2024-01-27T16:37:49;2.63;;;0.80;;
67037;SDS011;53940;53.204;6.590;2024-01-27T16:40:49;2.42;;;0.75;;
67037;SDS011;53940;53.204;6.590;2024-01-27T16:43:50;2.17;;;0.93;;
67037;SDS011;53940;53.204;6.590;2024-01-27T16:46:52;3.25;;;0.98;;
67037;SDS011;53940;53.204;6.590;2024-01-27T16:49:52;2.45;;;1.00;;
67037;SDS011;53940;53.204;6.590;2024-01-27T16:52:52;1.80;;;0.70;;
67037;SDS011;53940;53.204;6.590;2024-01-27T16:55:53;1.35;;;0.60;;
67037;SDS011;53940;53.204;6.590;2024-01-27T16:58:53;1.63;;;0.85;;
67037;SDS011;53940;53.204;6.590;2024-01-27T17:01:55;1.85;;;0.82;;
67037;SDS011;53940;53.204;6.590;2024-01-27T17:04:55;1.90;;;0.70;;
67037;SDS011;53940;53.204;6.590;2024-01-27T17:08:02;2.28;;;0.80;;
67037;SDS011;53940;53.204;6.590;2024-01-27T17:11:02;2.17;;;0.60;;
67037;SDS011;53940;53.204;6.590;2024-01-27T17:14:03;3.22;;;0.95;;
67037;SDS011;53940;53.204;6.590;2024-01-27T17:17:04;2.65;;;0.77;;
67037;SDS011;53940;53.204;6.590;2024-01-27T17:20:05;1.75;;;0.70;;
67037;SDS011;53940;53.204;6.590;2024-01-27T17:23:08;1.58;;;0.65;;
67037;SDS011;53940;53.204;6.590;2024-01-27T17:26:08;1.77;;;0.70;;
67037;SDS011;53940;53.204;6.590;2024-01-27T17:29:09;1.95;;;0.75;;
67037;SDS011;53940;53.204;6.590;2024-01-27T17:32:09;2.47;;;1.08;;
67037;SDS011;53940;53.204;6.590;2024-01-27T17:35:09;1.50;;;0.80;;
67037;SDS011;53940;53.204;6.590;2024-01-27T17:38:10;2.05;;;0.70;;
67037;SDS011;53940;53.204;6.590;2024-01-27T17:41:10;1.73;;;0.57;;
67037;SDS011;53940;53.204;6.590;2024-01-27T17:44:10;1.48;;;0.70;;
67037;SDS011;53940;53.204;6.590;2024-01-27T17:47:11;1.70;;;0.60;;
67037;SDS011;53940;53.204;6.590;2024-01-27T17:50:11;1.55;;;0.60;;
67037;SDS011;53940;53.204;6.590;2024-01-27T17:53:13;2.22;;;0.80;;
67037;SDS011;53940;53.204;6.590;2024-01-27T17:56:20;2.40;;;0.80;;
67037;SDS011;53940;53.204;6.590;2024-01-27T17:59:21;1.63;;;0.60;;
67037;SDS011;53940;53.204;6.590;2024-01-27T18:02:22;1.27;;;0.60;;
67037;SDS011;53940;53.204;6.590;2024-01-27T18:05:25;1.33;;;0.60;;
67037;SDS011;53940;53.204;6.590;2024-01-27T18:08:26;1.85;;;0.80;;
67037;SDS011;53940;53.204;6.590;2024-01-27T18:11:27;2.70;;;0.90;;
67037;SDS011;53940;53.204;6.590;2024-01-27T18:14:28;1.95;;;0.70;;